OEHL

Details ICAO OEHL (HAS)
Name HAIL
Region Saudi Arabia
Timezone Asia/Riyadh (UTC+3.0)
Plans Departing 15
Arriving 16
Stats Elevation 3,331 ft / 1,015 m (AMSL)
Location 27.437917° 41.686292°
Runways 1
Magnetic Variation 3.905° E
Sunrise 2017-12-12 03:55:19 UTC / 2017-12-12 06:55:19 Local
Sunset 2017-12-12 14:21:25 UTC / 2017-12-12 17:21:25 Local
Advertisement - Login to hide

Runways

ID Width Length Bearing (true) Bearing (mag) Surface Threshold Offset Overrun Length
18 148 ft / 45 m 12,250 ft / 3,734 m 183.66° 179.75° Asphalt 0 ft / 0 m 1,343 ft / 409 m
36 148 ft / 45 m 12,250 ft / 3,734 m 3.66° 359.75° Asphalt 1,164 ft / 355 m 0 ft / 0 m

Approach Navaids

Runway Type Ident Frequency Range Bearing (true) Bearing (mag) Slope Elevation
18 Localiser IHIL 110.30 MHz 18 nm / 33 km 183.69° 179.78° - 3,331 ft / 1,015 m (AMSL)
18 Glidescope IHIL 110.30 MHz 10 nm / 19 km 183.66° 179.76° 3.00° 53 ft / 16 m (AMSL)

Map

Weather


0- 5 10 15 20 25 30 35+ Temperature / ° C

Clouds and Precipitation
Forecast for 2017-12-12 18:00 UTC. Updated an hour ago

Ground ~20,000 ft ~40,000 ft Winds

METAR

OEHL 121400Z 06006KT CAVOK 22/M03 Q1024 NOSIG

TAF

Not found

Frequencies

Unicom 122.80 MHz CTAF
Tower 131.50 MHz SAUDIA RDO
Tower 118.70 MHz INFO
Warning: Do not use this data for real-world aviation or navigation. No guarantee of current accuracy is given.